Time;durP1;ratioP1;P1;durP2;ratioP2;P2;SDS_P1;SDS_P2;PMS_P1;PMS_P2;Temp;Humidity;BMP_temperature;BMP_pressure;BME280_temperature;BME280_humidity;BME280_pressure;Samples;Min_cycle;Max_cycle;Signal;HPM_P1;HPM_P2
2023/09/05 00:01:15;;;;;;;5.90;3.10;;;;;;;16.11;100.00;101702.31;5913752;29;20289;-66
2023/09/05 00:04:12;;;;;;;4.73;2.43;;;;;;;16.08;100.00;101708.84;5912837;29;20043;-67
2023/09/05 00:07:08;;;;;;;8.88;2.80;;;;;;;16.05;100.00;101703.78;5915466;29;20063;-66
2023/09/05 00:10:05;;;;;;;7.70;2.40;;;;;;;15.95;100.00;101692.38;5913501;29;20033;-67
2023/09/05 00:13:05;;;;;;;8.07;2.67;;;;;;;15.98;100.00;101692.06;5912802;29;20051;-66
2023/09/05 00:16:01;;;;;;;7.18;2.60;;;;;;;15.92;100.00;101696.19;5912713;29;20210;-67
2023/09/05 00:18:56;;;;;;;4.67;2.70;;;;;;;15.84;100.00;101689.94;5913079;29;20044;-68
2023/09/05 00:21:51;;;;;;;5.10;2.72;;;;;;;15.85;100.00;101680.91;5911372;29;20032;-69
2023/09/05 00:24:48;;;;;;;4.53;2.40;;;;;;;15.75;100.00;101674.81;5912319;29;20048;-67
2023/09/05 00:27:44;;;;;;;5.13;2.67;;;;;;;15.75;100.00;101681.00;5912222;29;20040;-67
2023/09/05 00:30:40;;;;;;;5.78;2.60;;;;;;;15.70;100.00;101674.44;5912807;29;20049;-68
2023/09/05 00:33:35;;;;;;;6.23;3.30;;;;;;;15.71;100.00;101674.28;5911746;29;20083;-67
2023/09/05 00:36:30;;;;;;;4.33;2.60;;;;;;;15.66;100.00;101667.72;5912654;29;20295;-67
2023/09/05 00:39:26;;;;;;;6.67;2.83;;;;;;;15.74;100.00;101681.16;5912618;29;20040;-67
2023/09/05 00:42:22;;;;;;;6.53;2.38;;;;;;;15.75;100.00;101685.50;5912379;29;20032;-68
2023/09/05 00:45:18;;;;;;;3.23;1.97;;;;;;;15.73;100.00;101676.81;5911796;29;20040;-68
2023/09/05 00:48:14;;;;;;;6.47;2.30;;;;;;;15.76;100.00;101679.19;5914764;29;20036;-68
2023/09/05 00:51:09;;;;;;;3.60;2.23;;;;;;;15.71;100.00;101678.81;5914068;29;20449;-67
2023/09/05 00:54:05;;;;;;;3.53;2.00;;;;;;;15.78;100.00;101685.22;5911860;29;20044;-67
2023/09/05 00:57:01;;;;;;;5.25;2.08;;;;;;;15.85;100.00;101692.44;5911964;29;20044;-68
2023/09/05 00:59:56;;;;;;;3.70;2.40;;;;;;;15.75;100.00;101689.03;5912007;29;20052;-67
2023/09/05 01:02:53;;;;;;;3.53;1.80;;;;;;;15.67;100.00;101680.94;5911939;29;20037;-67
2023/09/05 01:05:54;;;;;;;3.65;2.03;;;;;;;15.72;100.00;101693.84;5911530;29;20068;-67
2023/09/05 01:08:56;;;;;;;4.20;1.88;;;;;;;15.58;100.00;101673.84;5895148;29;20176;-68
2023/09/05 01:11:52;;;;;;;5.28;2.33;;;;;;;15.70;100.00;101699.34;5906507;29;20391;-67
2023/09/05 01:14:48;;;;;;;7.53;2.55;;;;;;;15.65;100.00;101698.16;5911613;29;20040;-67
2023/09/05 01:17:44;;;;;;;5.70;2.28;;;;;;;15.16;100.00;101689.66;5927414;29;20043;-68
2023/09/05 01:20:51;;;;;;;5.22;1.98;;;;;;;14.90;100.00;101700.22;5895432;29;20561;-68
2023/09/05 01:23:52;;;;;;;4.97;2.10;;;;;;;14.63;100.00;101686.03;5900647;29;20040;-68
2023/09/05 01:26:49;;;;;;;7.63;2.17;;;;;;;14.54;100.00;101690.41;5894837;29;20044;-68
2023/09/05 01:29:45;;;;;;;5.05;1.98;;;;;;;14.26;100.00;101692.22;5895137;29;20452;-69
2023/09/05 01:32:40;;;;;;;4.18;1.95;;;;;;;14.07;100.00;101688.75;5910877;29;20064;-68
2023/09/05 01:35:35;;;;;;;6.33;2.37;;;;;;;14.07;100.00;101686.09;5910577;29;20096;-67
2023/09/05 01:38:31;;;;;;;4.87;2.33;;;;;;;13.96;100.00;101680.91;5911232;29;20028;-68
2023/09/05 01:41:26;;;;;;;4.60;2.40;;;;;;;13.84;100.00;101677.56;5910674;29;20033;-68
2023/09/05 01:44:21;;;;;;;6.20;2.23;;;;;;;13.72;100.00;101689.38;5909982;29;20639;-68
2023/09/05 01:47:17;;;;;;;3.90;2.20;;;;;;;13.65;100.00;101691.78;5910823;29;20283;-68
2023/09/05 01:50:12;;;;;;;6.63;2.60;;;;;;;13.60;100.00;101695.84;5911341;29;20452;-68
2023/09/05 01:53:07;;;;;;;4.50;2.47;;;;;;;13.38;100.00;101686.31;5910940;29;20040;-67
2023/09/05 01:56:03;;;;;;;5.10;2.57;;;;;;;13.30;100.00;101688.84;5910092;29;20032;-67
2023/09/05 01:58:58;;;;;;;5.85;2.75;;;;;;;13.18;100.00;101678.47;5911045;29;20051;-67
2023/09/05 02:01:54;;;;;;;8.90;2.67;;;;;;;13.28;100.00;101665.97;5909938;29;20033;-67
2023/09/05 02:04:49;;;;;;;4.95;2.55;;;;;;;13.23;100.00;101674.41;5910026;29;20032;-68
2023/09/05 02:07:44;;;;;;;4.33;2.77;;;;;;;13.16;100.00;101696.38;5910792;29;20072;-68
2023/09/05 02:10:40;;;;;;;6.53;3.17;;;;;;;13.54;100.00;101669.75;5910682;29;20289;-67
2023/09/05 02:13:35;;;;;;;4.07;2.40;;;;;;;13.67;100.00;101689.78;5909431;29;20144;-67
2023/09/05 02:16:31;;;;;;;5.55;2.55;;;;;;;13.75;100.00;101685.59;5924968;29;20077;-67
2023/09/05 02:19:28;;;;;;;4.53;2.97;;;;;;;13.74;100.00;101695.41;5912916;29;20040;-68
2023/09/05 02:22:23;;;;;;;6.95;2.80;;;;;;;13.34;100.00;101684.06;5932999;29;20376;-67
2023/09/05 02:25:19;;;;;;;5.53;2.60;;;;;;;13.24;100.00;101685.88;5920487;29;20044;-68
2023/09/05 02:28:14;;;;;;;5.38;2.58;;;;;;;13.41;100.00;101666.53;5926949;29;20469;-67
2023/09/05 02:31:09;;;;;;;5.13;2.70;;;;;;;13.37;100.00;101660.63;5915754;29;20503;-67
2023/09/05 02:34:05;;;;;;;8.73;3.00;;;;;;;13.50;100.00;101655.03;5910493;29;20036;-67
2023/09/05 02:37:00;;;;;;;8.47;3.30;;;;;;;13.66;100.00;101653.47;5910005;29;20048;-67
2023/09/05 02:39:55;;;;;;;5.97;3.20;;;;;;;14.00;100.00;101656.47;5910232;29;20461;-68
2023/09/05 02:42:51;;;;;;;5.90;3.60;;;;;;;13.80;100.00;101670.00;5910081;29;20340;-68
2023/09/05 02:45:52;;;;;;;6.30;2.60;;;;;;;13.74;100.00;101660.75;5909958;29;20269;-68
2023/09/05 02:48:49;;;;;;;6.47;3.00;;;;;;;13.78;100.00;101662.13;5909879;29;20040;-67
2023/09/05 02:51:44;;;;;;;5.32;2.60;;;;;;;13.94;100.00;101667.72;5919112;29;20059;-68
2023/09/05 02:54:39;;;;;;;3.97;2.40;;;;;;;13.93;100.00;101666.03;5917846;29;20041;-68
2023/09/05 02:57:35;;;;;;;5.37;2.70;;;;;;;13.78;100.00;101672.81;5914122;29;20037;-68
2023/09/05 03:00:30;;;;;;;5.80;2.77;;;;;;;13.64;100.00;101668.75;5914591;29;20143;-68
2023/09/05 03:03:26;;;;;;;6.32;2.92;;;;;;;13.20;100.00;101656.03;5914139;29;20272;-68
2023/09/05 03:06:21;;;;;;;6.03;2.85;;;;;;;12.98;100.00;101657.09;5914304;29;20046;-68
2023/09/05 03:09:16;;;;;;;5.07;2.27;;;;;;;12.82;100.00;101667.44;5921816;29;20054;-67
2023/09/05 03:12:11;;;;;;;7.57;2.80;;;;;;;13.23;100.00;101668.22;5915441;29;20328;-67
2023/09/05 03:15:07;;;;;;;4.80;2.40;;;;;;;13.26;100.00;101668.81;5913786;29;20119;-68
2023/09/05 03:18:02;;;;;;;5.65;2.70;;;;;;;13.34;100.00;101652.09;5914567;29;20422;-68
2023/09/05 03:20:58;;;;;;;4.45;2.70;;;;;;;13.13;100.00;101643.41;5913770;29;20119;-66
2023/09/05 03:23:54;;;;;;;4.75;2.58;;;;;;;13.31;100.00;101647.91;5913694;29;20041;-67
2023/09/05 03:26:49;;;;;;;5.88;2.80;;;;;;;13.38;100.00;101653.50;5916743;29;20055;-66
2023/09/05 03:29:44;;;;;;;6.23;2.73;;;;;;;13.56;100.00;101657.97;5915052;29;20095;-67
2023/09/05 03:32:40;;;;;;;6.40;3.10;;;;;;;13.63;100.00;101660.91;5913914;29;20041;-67
2023/09/05 03:35:36;;;;;;;5.68;2.70;;;;;;;13.51;100.00;101651.38;5896140;29;20056;-67
2023/09/05 03:38:32;;;;;;;5.63;2.67;;;;;;;13.21;100.00;101646.22;5913411;29;20490;-67
2023/09/05 03:41:28;;;;;;;4.32;2.38;;;;;;;12.99;100.00;101647.31;5913276;29;20700;-67
2023/09/05 03:44:23;;;;;;;3.78;2.33;;;;;;;12.99;100.00;101669.41;5913407;29;20037;-67
2023/09/05 03:47:18;;;;;;;4.03;2.50;;;;;;;12.80;100.00;101658.72;5913852;29;20036;-68
2023/09/05 03:50:15;;;;;;;6.43;2.70;;;;;;;13.15;100.00;101657.44;5913290;29;20042;-69
2023/09/05 03:53:11;;;;;;;5.25;2.67;;;;;;;13.33;100.00;101669.06;5913418;29;20036;-68
2023/09/05 03:56:06;;;;;;;5.80;2.53;;;;;;;13.25;100.00;101669.78;5912824;29;20427;-67
2023/09/05 03:59:01;;;;;;;5.80;2.97;;;;;;;12.83;100.00;101646.97;5913474;29;20060;-68
2023/09/05 04:01:57;;;;;;;6.57;2.93;;;;;;;13.00;100.00;101641.81;5913305;29;20097;-68
2023/09/05 04:04:55;;;;;;;7.20;3.63;;;;;;;12.97;100.00;101650.09;5912690;29;20039;-67
2023/09/05 04:07:50;;;;;;;5.15;3.15;;;;;;;13.03;100.00;101648.69;5912893;29;20048;-67
2023/09/05 04:10:45;;;;;;;5.33;3.03;;;;;;;12.90;100.00;101670.25;5912926;29;20070;-69
2023/09/05 04:13:41;;;;;;;8.47;2.97;;;;;;;12.97;100.00;101666.06;5911717;29;20040;-67
2023/09/05 04:16:36;;;;;;;5.47;3.10;;;;;;;13.06;100.00;101651.94;5920932;29;20043;-67
2023/09/05 04:19:31;;;;;;;5.80;3.00;;;;;;;13.09;100.00;101649.03;5913066;29;20052;-68
2023/09/05 04:22:29;;;;;;;8.10;3.07;;;;;;;13.02;100.00;101641.66;5913154;29;20432;-67
2023/09/05 04:25:26;;;;;;;7.65;4.20;;;;;;;13.29;100.00;101670.34;5912124;29;20122;-68
2023/09/05 04:28:21;;;;;;;6.50;3.53;;;;;;;13.20;100.00;101647.19;5913126;29;20037;-68
2023/09/05 04:31:19;;;;;;;9.37;4.30;;;;;;;13.23;100.00;101655.75;5912615;29;20043;-69
2023/09/05 04:34:14;;;;;;;8.07;3.75;;;;;;;13.36;100.00;101666.13;5912474;29;20048;-66
2023/09/05 04:37:10;;;;;;;7.80;3.73;;;;;;;13.34;100.00;101657.44;5913797;29;20037;-66
2023/09/05 04:40:07;;;;;;;5.88;3.08;;;;;;;13.47;100.00;101668.66;5912606;29;20118;-67
2023/09/05 04:43:03;;;;;;;5.70;3.20;;;;;;;13.42;100.00;101653.09;5912222;29;20476;-66
2023/09/05 04:45:58;;;;;;;6.60;3.22;;;;;;;13.39;100.00;101649.84;5911762;29;20095;-67
2023/09/05 04:48:54;;;;;;;6.23;3.50;;;;;;;13.44;100.00;101652.94;5917991;29;20377;-67
2023/09/05 04:51:49;;;;;;;6.07;3.37;;;;;;;13.33;100.00;101647.75;5911504;29;20309;-66
2023/09/05 04:54:45;;;;;;;5.53;3.77;;;;;;;13.30;100.00;101651.53;5911501;29;20051;-68
2023/09/05 04:57:42;;;;;;;6.53;3.35;;;;;;;13.34;100.00;101646.78;5911731;29;20067;-68
2023/09/05 05:00:38;;;;;;;8.23;3.95;;;;;;;13.44;100.00;101658.25;5899658;29;20052;-68
2023/09/05 05:03:34;;;;;;;6.78;3.72;;;;;;;13.40;100.00;101664.88;5911801;29;20044;-68
2023/09/05 05:06:30;;;;;;;6.68;3.50;;;;;;;13.46;100.00;101666.94;5910767;29;20059;-67
2023/09/05 05:09:26;;;;;;;6.78;3.53;;;;;;;13.39;100.00;101655.19;5911840;29;20128;-68
2023/09/05 05:12:21;;;;;;;6.93;3.77;;;;;;;13.51;100.00;101670.88;5914449;29;20047;-68
2023/09/05 05:15:16;;;;;;;10.10;3.87;;;;;;;13.50;100.00;101650.56;5909418;29;20028;-68
2023/09/05 05:18:11;;;;;;;7.43;3.73;;;;;;;13.64;100.00;101668.75;5911486;29;20067;-67
2023/09/05 05:21:07;;;;;;;7.10;3.83;;;;;;;13.59;100.00;101652.34;5910611;29;20040;-66
2023/09/05 05:24:02;;;;;;;8.40;3.97;;;;;;;13.69;100.00;101668.34;5911302;29;20044;-67
2023/09/05 05:26:57;;;;;;;7.35;3.83;;;;;;;13.71;100.00;101656.56;5910907;29;20040;-67
2023/09/05 05:29:53;;;;;;;8.40;3.70;;;;;;;14.04;100.00;101652.53;5910536;29;20045;-68
2023/09/05 05:32:48;;;;;;;8.00;3.60;;;;;;;15.03;100.00;101659.75;5911599;29;20392;-68
2023/09/05 05:35:43;;;;;;;7.77;3.27;;;;;;;15.58;100.00;101670.31;5910240;29;20048;-68
2023/09/05 05:38:39;;;;;;;6.27;3.47;;;;;;;16.27;100.00;101622.13;5911263;29;20048;-68
2023/09/05 05:41:34;;;;;;;5.10;2.97;;;;;;;17.25;100.00;101652.56;5910595;29;20035;-67
2023/09/05 05:44:29;;;;;;;6.68;3.47;;;;;;;17.53;99.99;101660.28;5909404;29;20043;-69
2023/09/05 05:47:25;;;;;;;5.40;3.30;;;;;;;17.00;100.00;101663.41;5909671;29;20400;-67
2023/09/05 05:50:20;;;;;;;6.95;3.40;;;;;;;16.33;100.00;101643.75;5916552;29;20036;-67
2023/09/05 05:53:15;;;;;;;7.60;3.20;;;;;;;16.08;100.00;101641.94;5914423;29;20029;-68
2023/09/05 05:56:11;;;;;;;5.80;3.53;;;;;;;16.53;100.00;101645.19;5899224;29;20485;-67
2023/09/05 05:59:06;;;;;;;5.78;3.30;;;;;;;17.47;100.00;101629.59;5910157;29;20080;-69
2023/09/05 06:02:04;;;;;;;6.63;3.67;;;;;;;18.00;94.67;101638.94;5911881;29;20040;-68
2023/09/05 06:04:59;;;;;;;8.10;3.13;;;;;;;17.63;97.83;101637.69;5915752;29;20112;-68
2023/09/05 06:07:56;;;;;;;7.97;3.55;;;;;;;17.13;100.00;101653.88;5910746;29;20049;-67
2023/09/05 06:10:51;;;;;;;5.20;2.60;;;;;;;17.16;100.00;101647.34;5910606;29;20048;-67
2023/09/05 06:13:46;;;;;;;5.87;3.27;;;;;;;17.40;100.00;101655.41;5893545;29;20072;-69
2023/09/05 06:16:48;;;;;;;8.02;3.08;;;;;;;17.44;100.00;101662.13;5919577;29;20324;-67
2023/09/05 06:19:43;;;;;;;6.88;3.72;;;;;;;17.48;100.00;101658.09;5909306;29;20084;-67
2023/09/05 06:22:39;;;;;;;6.53;3.27;;;;;;;17.80;98.90;101658.09;5910830;29;20388;-67
2023/09/05 06:25:35;;;;;;;7.50;3.47;;;;;;;17.88;99.36;101653.75;5909889;29;20277;-68
2023/09/05 06:28:30;;;;;;;6.55;3.40;;;;;;;18.49;95.81;101656.59;5910203;29;20065;-69
2023/09/05 06:31:26;;;;;;;8.33;3.53;;;;;;;18.34;93.80;101677.94;5910411;29;20071;-69
2023/09/05 06:34:21;;;;;;;6.83;3.73;;;;;;;18.41;94.68;101660.13;5909355;29;20292;-67
2023/09/05 06:37:16;;;;;;;8.75;3.45;;;;;;;19.20;89.71;101683.28;5910552;29;20764;-67
2023/09/05 06:40:15;;;;;;;6.32;3.15;;;;;;;19.35;87.64;101661.81;5910683;29;20151;-69
2023/09/05 06:43:10;;;;;;;6.05;3.35;;;;;;;19.07;90.81;101657.97;5910401;29;20522;-67
2023/09/05 06:46:07;;;;;;;8.93;3.67;;;;;;;19.00;89.46;101669.44;5910050;29;20032;-67
2023/09/05 06:49:02;;;;;;;7.22;4.03;;;;;;;19.05;89.77;101674.31;5909848;29;20040;-68
2023/09/05 06:51:58;;;;;;;8.52;3.60;;;;;;;18.91;91.70;101667.84;5909918;29;20044;-67
2023/09/05 06:54:53;;;;;;;8.13;3.50;;;;;;;18.70;93.99;101667.59;5909665;29;20388;-67
2023/09/05 06:57:48;;;;;;;9.63;4.60;;;;;;;18.98;92.65;101674.16;5910381;29;20285;-68
2023/09/05 07:00:44;;;;;;;7.97;3.70;;;;;;;19.08;91.59;101659.66;5910181;29;20044;-67
2023/09/05 07:03:39;;;;;;;7.72;3.67;;;;;;;19.10;91.82;101654.94;5909320;29;20572;-67
2023/09/05 07:06:36;;;;;;;8.73;3.80;;;;;;;19.30;91.24;101656.13;5910239;29;20488;-69
2023/09/05 07:09:31;;;;;;;7.93;3.72;;;;;;;19.96;88.54;101653.56;5909984;29;20088;-68
2023/09/05 07:12:27;;;;;;;11.80;3.90;;;;;;;20.24;86.16;101656.47;5910116;29;20366;-67
2023/09/05 07:15:22;;;;;;;13.13;4.20;;;;;;;20.29;85.73;101662.16;5910443;29;20500;-68
2023/09/05 07:18:17;;;;;;;8.65;3.40;;;;;;;20.56;82.54;101658.78;5923267;29;20042;-68
2023/09/05 07:21:12;;;;;;;7.53;3.60;;;;;;;20.85;78.70;101646.25;5910125;29;20041;-67
2023/09/05 07:24:09;;;;;;;14.67;4.20;;;;;;;21.11;77.26;101657.38;5908985;29;20118;-70
2023/09/05 07:27:05;;;;;;;16.38;5.32;;;;;;;21.39;77.35;101669.06;5896870;29;20024;-69
2023/09/05 07:30:00;;;;;;;13.82;5.63;;;;;;;21.55;77.42;101665.28;5909957;29;20531;-69
2023/09/05 07:32:56;;;;;;;12.33;5.87;;;;;;;21.64;75.02;101672.19;5909385;29;20036;-68
2023/09/05 07:35:51;;;;;;;15.47;5.03;;;;;;;21.57;73.32;101665.91;5909185;29;20396;-69
2023/09/05 07:38:46;;;;;;;12.35;4.95;;;;;;;21.69;71.63;101678.69;5909534;29;20283;-68
2023/09/05 07:41:42;;;;;;;15.07;5.17;;;;;;;22.06;70.89;101668.63;5909713;29;20508;-68
2023/09/05 07:44:37;;;;;;;9.93;4.40;;;;;;;22.22;67.02;101660.19;5913215;29;20096;-70
2023/09/05 07:47:33;;;;;;;10.40;3.87;;;;;;;22.38;65.70;101676.94;5913550;29;20124;-70
2023/09/05 07:50:29;;;;;;;9.55;3.70;;;;;;;22.32;64.86;101676.88;5913668;29;20433;-67
2023/09/05 07:53:24;;;;;;;89.50;10.73;;;;;;;22.63;65.49;101681.84;5912903;29;20056;-68
2023/09/05 07:56:19;;;;;;;10.73;3.30;;;;;;;22.57;64.04;101663.69;5914006;29;20032;-69
2023/09/05 07:59:15;;;;;;;9.07;3.67;;;;;;;22.64;62.68;101670.84;5913455;29;20044;-68
2023/09/05 08:02:10;;;;;;;9.20;3.10;;;;;;;22.96;61.68;101666.59;5910212;29;20556;-67
2023/09/05 08:05:06;;;;;;;12.65;3.42;;;;;;;23.17;60.17;101674.56;5912979;29;20036;-68
2023/09/05 08:08:02;;;;;;;8.13;2.95;;;;;;;23.43;57.96;101669.22;5913084;29;20041;-69
2023/09/05 08:10:57;;;;;;;8.43;2.90;;;;;;;23.66;58.50;101677.78;5913615;29;20045;-68
2023/09/05 08:13:52;;;;;;;8.00;2.55;;;;;;;24.01;57.07;101659.41;5912844;29;20056;-69
2023/09/05 08:16:48;;;;;;;7.10;2.73;;;;;;;23.96;57.59;101680.91;5912948;29;20049;-67
2023/09/05 08:19:44;;;;;;;10.48;2.92;;;;;;;23.83;56.38;101664.66;5913118;29;20473;-66
2023/09/05 08:22:40;;;;;;;7.95;2.83;;;;;;;24.15;57.50;101679.22;5912904;29;20048;-68
2023/09/05 08:25:35;;;;;;;6.20;2.40;;;;;;;24.15;54.23;101668.38;5911967;29;20092;-67
2023/09/05 08:28:33;;;;;;;4.80;1.85;;;;;;;24.35;53.58;101663.72;5913051;29;20396;-66
2023/09/05 08:31:28;;;;;;;7.30;1.63;;;;;;;24.52;52.34;101648.66;5910356;29;20477;-70
2023/09/05 08:34:23;;;;;;;4.15;1.67;;;;;;;25.04;50.81;101666.59;5911937;29;20124;-67
2023/09/05 08:37:20;;;;;;;3.28;1.60;;;;;;;24.71;49.21;101639.59;5912968;29;20076;-69
2023/09/05 08:40:15;;;;;;;2.75;1.45;;;;;;;25.06;49.71;101656.34;5916751;29;20779;-68
2023/09/05 08:43:11;;;;;;;3.17;1.80;;;;;;;24.87;49.40;101645.63;5919983;29;20123;-67
2023/09/05 08:46:06;;;;;;;3.53;1.63;;;;;;;24.74;49.58;101652.75;5912452;29;20052;-68
2023/09/05 08:49:02;;;;;;;6.97;2.00;;;;;;;24.93;49.27;101666.44;5895324;29;20281;-67
2023/09/05 08:52:02;;;;;;;3.08;1.67;;;;;;;25.47;49.36;101647.75;5919254;29;20056;-68
2023/09/05 08:54:58;;;;;;;3.30;1.30;;;;;;;25.57;47.22;101648.09;5913680;29;20063;-67
2023/09/05 08:57:55;;;;;;;3.30;1.38;;;;;;;25.65;46.95;101650.53;5912267;29;20118;-68
2023/09/05 09:00:50;;;;;;;2.40;1.40;;;;;;;25.82;46.87;101646.19;5912488;29;20406;-68
2023/09/05 09:03:46;;;;;;;5.05;1.48;;;;;;;25.60;47.32;101644.09;5911079;29;20071;-68
2023/09/05 09:06:43;;;;;;;5.00;1.50;;;;;;;25.69;47.08;101631.88;5911762;29;20099;-68
2023/09/05 09:09:39;;;;;;;3.63;1.23;;;;;;;25.92;46.89;101627.50;5912038;29;20039;-69
2023/09/05 09:12:34;;;;;;;3.42;1.58;;;;;;;25.77;45.54;101643.31;5912060;29;20558;-68
2023/09/05 09:15:30;;;;;;;3.07;1.40;;;;;;;25.78;46.31;101650.41;5910763;29;20040;-68
2023/09/05 09:18:26;;;;;;;3.70;1.33;;;;;;;26.12;45.55;101645.50;5915964;29;20091;-68
2023/09/05 09:21:23;;;;;;;4.47;1.30;;;;;;;26.24;45.17;101635.53;5911722;29;20543;-67
2023/09/05 09:24:20;;;;;;;13.88;2.58;;;;;;;26.49;44.46;101653.47;5910850;29;20444;-67
2023/09/05 09:27:22;;;;;;;9.13;2.13;;;;;;;26.32;44.80;101635.25;5911719;29;20460;-67
2023/09/05 09:30:20;;;;;;;2.78;1.30;;;;;;;26.45;44.90;101656.84;5911656;29;20488;-68
2023/09/05 09:33:16;;;;;;;2.90;1.25;;;;;;;26.53;45.40;101640.22;5910778;29;20044;-68
2023/09/05 09:36:12;;;;;;;2.13;1.20;;;;;;;26.73;45.06;101643.53;5910976;29;20499;-69
2023/09/05 09:39:09;;;;;;;2.28;1.02;;;;;;;26.70;45.39;101635.81;5911370;29;20388;-68
2023/09/05 09:42:04;;;;;;;4.72;1.60;;;;;;;26.63;43.91;101638.59;5904286;29;20033;-67
2023/09/05 09:45:00;;;;;;;5.70;1.83;;;;;;;26.41;44.47;101633.88;5908686;29;20558;-67
2023/09/05 09:47:55;;;;;;;8.43;2.05;;;;;;;26.70;44.54;101637.69;5909487;29;20049;-67
2023/09/05 09:50:51;;;;;;;3.25;1.20;;;;;;;26.41;44.75;101615.69;5910973;29;20044;-68
2023/09/05 09:53:48;;;;;;;5.07;1.60;;;;;;;26.94;44.42;101631.31;5910709;29;20040;-68
2023/09/05 09:56:45;;;;;;;3.05;1.40;;;;;;;27.06;42.85;101616.69;5910429;29;20415;-67
2023/09/05 09:59:45;;;;;;;7.63;1.63;;;;;;;26.84;42.87;101623.72;5894370;29;20048;-67
2023/09/05 10:02:43;;;;;;;3.28;1.45;;;;;;;27.20;43.54;101615.41;5910931;29;20036;-67
2023/09/05 10:05:41;;;;;;;4.68;1.50;;;;;;;27.20;42.43;101607.22;5909526;29;20044;-67
2023/09/05 10:08:37;;;;;;;6.10;2.70;;;;;;;27.33;43.35;101602.66;5909841;29;20459;-68
2023/09/05 10:11:34;;;;;;;3.58;1.40;;;;;;;27.90;41.33;101612.78;5910308;29;20032;-68
2023/09/05 10:14:30;;;;;;;2.65;1.13;;;;;;;27.42;42.58;101607.53;5892833;29;20040;-68
2023/09/05 10:17:26;;;;;;;3.30;1.23;;;;;;;27.77;41.89;101615.75;5923997;29;20064;-67
2023/09/05 10:20:25;;;;;;;2.17;0.98;;;;;;;28.02;41.36;101591.78;5910217;29;20049;-68
2023/09/05 10:23:20;;;;;;;2.00;1.10;;;;;;;28.39;40.56;101600.50;5909916;29;20041;-68
2023/09/05 10:26:16;;;;;;;3.75;1.33;;;;;;;28.55;39.77;101593.44;5910479;29;20036;-68
2023/09/05 10:29:34;;;;;;;2.15;1.15;;;;;;;28.66;40.62;101584.41;5896840;29;20495;-67
2023/09/05 10:32:30;;;;;;;2.42;1.00;;;;;;;28.47;40.78;101599.28;5909980;29;20032;-69
2023/09/05 10:35:25;;;;;;;3.00;1.30;;;;;;;28.45;40.79;101571.41;5908346;29;20047;-68
2023/09/05 10:38:20;;;;;;;3.33;1.30;;;;;;;28.63;40.95;101569.34;5910107;29;20040;-68
2023/09/05 10:41:35;;;;;;;3.20;1.20;;;;;;;28.64;40.17;101581.09;5910252;29;20059;-69
2023/09/05 10:44:30;;;;;;;5.75;1.25;;;;;;;28.93;40.17;101580.00;5909611;29;20112;-68
2023/09/05 10:47:33;;;;;;;3.58;1.10;;;;;;;28.76;39.55;101562.75;5910636;29;20035;-69
2023/09/05 10:50:28;;;;;;;1.83;1.10;;;;;;;28.84;39.19;101551.44;5909445;29;20096;-67
2023/09/05 10:53:23;;;;;;;3.07;1.20;;;;;;;28.85;39.46;101542.16;5909977;29;20052;-68
2023/09/05 10:56:39;;;;;;;2.60;0.90;;;;;;;28.48;39.99;101541.75;5910382;29;20285;-69
2023/09/05 10:59:34;;;;;;;2.33;1.00;;;;;;;28.65;39.92;101553.53;5907996;29;20645;-68
2023/09/05 11:02:31;;;;;;;1.55;1.10;;;;;;;28.88;39.91;101550.72;5916041;29;20132;-69
2023/09/05 11:05:27;;;;;;;3.00;1.15;;;;;;;29.24;39.29;101554.91;5905979;29;20481;-69
2023/09/05 11:08:23;;;;;;;2.55;1.00;;;;;;;29.52;38.51;101541.13;5909763;29;20072;-69
2023/09/05 11:11:25;;;;;;;2.80;1.20;;;;;;;29.57;38.12;101547.75;5910436;29;20044;-68
2023/09/05 11:14:31;;;;;;;2.92;1.23;;;;;;;29.55;38.35;101538.94;5909183;29;20040;-69
2023/09/05 11:17:28;;;;;;;1.77;1.15;;;;;;;29.64;38.69;101537.44;5938646;29;20032;-67
2023/09/05 11:20:39;;;;;;;4.53;1.38;;;;;;;30.04;39.43;101543.50;5915782;29;20067;-69
2023/09/05 11:23:34;;;;;;;3.53;1.33;;;;;;;30.20;36.89;101533.56;5913868;29;20475;-69
2023/09/05 11:26:30;;;;;;;5.50;1.40;;;;;;;30.10;36.60;101534.28;5914133;29;20044;-69
2023/09/05 11:29:27;;;;;;;4.45;1.58;;;;;;;29.65;37.99;101539.13;5912012;29;20576;-69
2023/09/05 11:32:33;;;;;;;4.68;1.35;;;;;;;30.05;37.26;101517.78;5913082;29;20046;-68
2023/09/05 11:35:31;;;;;;;3.90;1.30;;;;;;;30.32;37.62;101540.56;5912536;29;20485;-69
2023/09/05 11:38:28;;;;;;;3.42;1.23;;;;;;;29.94;37.97;101521.47;5913264;29;20149;-69
2023/09/05 11:41:37;;;;;;;2.85;1.10;;;;;;;29.60;38.97;101526.19;5913335;29;20043;-68
2023/09/05 11:44:39;;;;;;;5.03;1.38;;;;;;;29.70;38.45;101520.88;5911593;29;20032;-68
2023/09/05 11:47:34;;;;;;;1.85;1.10;;;;;;;29.72;38.48;101512.41;5917412;29;20052;-68
2023/09/05 11:50:31;;;;;;;7.77;1.77;;;;;;;30.32;38.98;101526.88;5912885;29;20051;-68
2023/09/05 11:53:27;;;;;;;2.50;1.02;;;;;;;30.08;37.61;101518.13;5926618;29;20280;-70
2023/09/05 11:56:22;;;;;;;2.78;1.10;;;;;;;29.96;39.10;101498.25;5911911;29;20033;-68
2023/09/05 11:59:18;;;;;;;20.87;3.40;;;;;;;30.04;39.20;101508.75;5896274;29;20047;-70
2023/09/05 12:02:18;;;;;;;1.85;1.23;;;;;;;30.25;38.10;101507.06;5911404;29;20761;-70
2023/09/05 12:05:15;;;;;;;3.72;1.40;;;;;;;30.30;37.89;101503.56;5896268;29;20060;-68
2023/09/05 12:08:10;;;;;;;62.05;7.38;;;;;;;30.29;38.25;101501.91;5913862;29;20041;-69
2023/09/05 12:11:07;;;;;;;3.75;1.33;;;;;;;30.00;38.25;101499.38;5931165;29;20442;-67
2023/09/05 12:14:03;;;;;;;2.83;1.20;;;;;;;29.97;38.60;101510.88;5912048;29;20056;-68
2023/09/05 12:16:58;;;;;;;2.10;1.20;;;;;;;29.97;38.55;101499.09;5914348;29;20032;-68
2023/09/05 12:19:55;;;;;;;8.40;1.70;;;;;;;29.58;39.56;101502.91;5911736;29;20047;-67
2023/09/05 12:22:50;;;;;;;3.90;1.60;;;;;;;30.22;39.31;101477.50;5911830;29;20028;-71
2023/09/05 12:25:46;;;;;;;6.47;1.70;;;;;;;30.27;39.19;101488.50;5911706;29;20043;-71
2023/09/05 12:28:53;;;;;;;8.45;1.90;;;;;;;30.33;38.78;101484.69;5910525;29;20139;-70
2023/09/05 12:31:49;;;;;;;4.07;1.52;;;;;;;30.26;39.14;101486.84;5911760;29;20033;-68
2023/09/05 12:34:45;;;;;;;4.93;1.33;;;;;;;30.80;38.18;101467.66;5913449;29;20024;-70
2023/09/05 12:37:41;;;;;;;4.93;1.90;;;;;;;30.59;37.89;101474.88;5912089;29;20120;-68
2023/09/05 12:40:37;;;;;;;5.13;1.67;;;;;;;30.09;38.56;101465.03;5910206;29;20437;-69
2023/09/05 12:43:32;;;;;;;4.63;1.83;;;;;;;30.66;37.41;101465.34;5909654;29;20383;-69
2023/09/05 12:46:29;;;;;;;4.90;2.33;;;;;;;30.94;38.02;101455.19;5909952;29;20025;-68
2023/09/05 12:49:24;;;;;;;9.63;2.30;;;;;;;30.64;37.83;101467.53;5910800;29;20037;-69
2023/09/05 12:52:21;;;;;;;4.67;2.13;;;;;;;31.17;36.83;101449.34;5912092;29;20061;-69
2023/09/05 12:55:16;;;;;;;11.50;3.28;;;;;;;30.66;38.21;101451.66;5910987;29;20048;-69
2023/09/05 12:58:12;;;;;;;9.20;2.53;;;;;;;30.56;38.21;101440.63;5911326;29;20100;-70
2023/09/05 13:01:07;;;;;;;6.90;2.50;;;;;;;31.16;37.83;101443.03;5909921;29;20315;-70
2023/09/05 13:04:03;;;;;;;6.33;2.07;;;;;;;31.31;37.96;101436.00;5909718;29;20457;-69
2023/09/05 13:06:58;;;;;;;6.07;2.33;;;;;;;31.06;37.29;101436.66;5911016;29;20036;-68
2023/09/05 13:09:54;;;;;;;9.83;2.53;;;;;;;31.10;36.68;101424.06;5910601;29;20048;-70
2023/09/05 13:12:51;;;;;;;6.00;2.45;;;;;;;30.86;37.57;101437.31;5910435;29;20280;-71
2023/09/05 13:15:46;;;;;;;6.75;2.10;;;;;;;31.10;37.47;101426.81;5910306;29;20139;-68
2023/09/05 13:18:41;;;;;;;10.48;2.30;;;;;;;30.92;37.63;101414.38;5914214;29;20037;-70
2023/09/05 13:21:37;;;;;;;5.27;2.00;;;;;;;30.83;37.73;101421.38;5910302;29;20045;-68
2023/09/05 13:24:32;;;;;;;5.00;2.03;;;;;;;31.09;37.00;101414.22;5910514;29;20297;-73
2023/09/05 13:27:28;;;;;;;6.00;1.87;;;;;;;30.83;37.63;101426.88;5913409;29;20043;-69
2023/09/05 13:30:23;;;;;;;5.82;2.08;;;;;;;30.62;38.17;101417.66;5917177;29;20345;-69
2023/09/05 13:33:18;;;;;;;8.63;2.27;;;;;;;30.45;38.67;101416.13;5910319;29;20064;-68
2023/09/05 13:36:13;;;;;;;4.13;1.90;;;;;;;30.48;38.88;101413.72;5908729;29;20364;-69